createdAt,value
2019-04-16T00:00:49.870Z,14.20
2019-04-16T00:03:20.267Z,18.80
2019-04-16T00:06:07.149Z,17.87
2019-04-16T00:08:40.904Z,14.95
2019-04-16T00:13:44.923Z,16.87
2019-04-16T00:16:14.497Z,13.95
2019-04-16T00:18:56.636Z,18.70
2019-04-16T00:21:16.482Z,17.20
2019-04-16T00:23:59.388Z,17.57
2019-04-16T00:26:28.721Z,27.73
2019-04-16T00:29:01.577Z,15.65
2019-04-16T00:31:29.268Z,18.23
2019-04-16T00:33:59.888Z,18.57
2019-04-16T00:36:29.294Z,16.23
2019-04-16T00:38:58.634Z,15.78
2019-04-16T00:41:28.300Z,18.48
2019-04-16T00:43:57.722Z,18.48
2019-04-16T00:46:27.127Z,17.30
2019-04-16T00:48:56.454Z,15.30
2019-04-16T00:51:25.794Z,17.15
2019-04-16T00:53:55.353Z,17.20
2019-04-16T00:56:24.697Z,22.93
2019-04-16T00:58:54.029Z,15.05
2019-04-16T01:01:23.434Z,18.30
2019-04-16T01:03:52.761Z,15.00
2019-04-16T01:06:22.095Z,18.27
2019-04-16T01:08:54.979Z,18.07
2019-04-16T01:11:22.506Z,16.70
2019-04-16T01:13:53.236Z,17.45
2019-04-16T01:16:23.468Z,17.60
2019-04-16T01:18:54.065Z,15.25
2019-04-16T01:21:23.400Z,16.45
2019-04-16T01:23:52.734Z,20.10
2019-04-16T01:26:24.244Z,17.00
2019-04-16T01:29:02.949Z,19.52
2019-04-16T01:31:32.827Z,16.55
2019-04-16T01:34:06.558Z,15.50
2019-04-16T01:36:56.046Z,18.48
2019-04-16T01:39:27.018Z,15.55
2019-04-16T01:41:56.358Z,20.35
2019-04-16T01:44:28.537Z,19.92
2019-04-16T01:46:56.757Z,18.25
2019-04-16T01:49:26.092Z,20.10
2019-04-16T01:51:55.427Z,17.57
2019-04-16T01:54:24.761Z,18.15
2019-04-16T01:56:54.097Z,18.15
2019-04-16T01:59:23.630Z,17.35
2019-04-16T02:01:52.998Z,20.57
2019-04-16T02:04:22.335Z,20.80
2019-04-16T02:06:54.321Z,18.55
2019-04-16T02:09:23.228Z,21.27
2019-04-16T02:11:52.809Z,16.70
2019-04-16T02:14:22.468Z,19.67
2019-04-16T02:16:55.769Z,20.62
2019-04-16T02:19:22.931Z,18.77
2019-04-16T02:21:52.272Z,22.62
2019-04-16T02:24:21.877Z,21.23
2019-04-16T02:26:54.571Z,20.92
2019-04-16T02:29:22.258Z,27.50
2019-04-16T02:31:52.548Z,20.35
2019-04-16T02:34:22.010Z,20.82
2019-04-16T02:36:51.329Z,20.27
2019-04-16T02:39:25.585Z,17.20
2019-04-16T02:41:56.760Z,24.18
2019-04-16T02:44:22.844Z,19.67
2019-04-16T02:46:52.201Z,23.40
2019-04-16T02:49:24.521Z,18.98
2019-04-16T02:52:00.212Z,19.55
2019-04-16T02:54:33.923Z,22.45
2019-04-16T02:57:06.616Z,19.25
2019-04-16T03:02:15.264Z,19.10
2019-04-16T03:07:14.847Z,19.57
2019-04-16T03:09:44.262Z,17.02
2019-04-16T03:12:13.690Z,17.95
2019-04-16T03:14:43.295Z,19.12
2019-04-16T03:17:23.309Z,20.55
2019-04-16T03:19:54.225Z,23.45
2019-04-16T03:22:23.844Z,18.42
2019-04-16T03:24:53.194Z,20.23
2019-04-16T03:27:23.026Z,17.37
2019-04-16T03:29:52.451Z,20.45
2019-04-16T03:32:22.084Z,16.85
2019-04-16T03:34:53.344Z,20.23
2019-04-16T03:37:22.553Z,20.65
2019-04-16T03:39:51.882Z,18.45
2019-04-16T03:42:21.233Z,17.60
2019-04-16T03:44:50.589Z,17.48
2019-04-16T03:47:20.040Z,28.05
2019-04-16T03:49:49.467Z,19.25
2019-04-16T03:52:18.823Z,20.90
2019-04-16T03:54:48.293Z,18.92
2019-04-16T03:57:17.647Z,20.43
2019-04-16T03:59:46.979Z,20.08
2019-04-16T04:02:22.030Z,19.80
2019-04-16T04:04:47.837Z,19.23
2019-04-16T04:07:17.521Z,21.62
2019-04-16T04:09:47.085Z,23.92
2019-04-16T04:12:16.462Z,19.00
2019-04-16T04:14:45.821Z,23.10
2019-04-16T04:17:15.521Z,24.90
2019-04-16T04:19:46.136Z,21.87
2019-04-16T04:22:16.253Z,22.35
2019-04-16T04:24:45.641Z,23.02
2019-04-16T04:27:18.784Z,25.55
2019-04-16T04:29:46.584Z,24.87
2019-04-16T04:32:17.333Z,25.05
2019-04-16T04:34:48.771Z,20.65
2019-04-16T04:37:17.703Z,28.57
2019-04-16T04:39:47.079Z,22.70
2019-04-16T04:42:18.974Z,27.50
2019-04-16T04:44:47.704Z,26.62
2019-04-16T04:47:19.385Z,25.65
2019-04-16T04:49:48.121Z,22.32
2019-04-16T04:52:17.453Z,26.20
2019-04-16T04:54:47.150Z,22.87
2019-04-16T04:57:16.479Z,26.02
2019-04-16T04:59:46.185Z,23.25
2019-04-16T05:02:15.948Z,29.70
2019-04-16T05:04:52.488Z,25.00
2019-04-16T05:07:20.993Z,27.30
2019-04-16T05:09:50.350Z,22.90
2019-04-16T05:12:21.348Z,26.25
2019-04-16T05:14:57.512Z,27.50
2019-04-16T05:17:24.307Z,24.98
2019-04-16T05:19:53.641Z,28.10
2019-04-16T05:22:23.074Z,22.40
2019-04-16T05:24:52.399Z,21.23
2019-04-16T05:27:21.731Z,26.02
2019-04-16T05:29:51.381Z,26.05
2019-04-16T05:32:20.732Z,26.40
2019-04-16T05:34:50.318Z,23.90
2019-04-16T05:37:20.854Z,26.15
2019-04-16T05:39:50.309Z,22.27
2019-04-16T05:42:22.419Z,23.50
2019-04-16T05:44:51.011Z,28.27
2019-04-16T05:47:20.343Z,23.30
2019-04-16T05:49:49.682Z,29.37
2019-04-16T05:52:19.042Z,24.37
2019-04-16T05:54:56.498Z,25.25
2019-04-16T05:57:27.673Z,21.40
2019-04-16T05:59:58.082Z,24.35
2019-04-16T06:02:29.056Z,31.30
2019-04-16T06:04:58.401Z,28.80
2019-04-16T06:07:27.738Z,22.70
2019-04-16T06:09:57.431Z,24.25
2019-04-16T06:12:28.399Z,25.27
2019-04-16T06:15:05.657Z,21.95
2019-04-16T06:17:53.483Z,24.30
2019-04-16T06:20:24.493Z,21.50
2019-04-16T06:23:01.001Z,24.55
2019-04-16T06:25:47.534Z,24.80
2019-04-16T06:28:24.471Z,28.30
2019-04-16T06:31:05.084Z,23.25
2019-04-16T06:33:51.341Z,22.05
2019-04-16T06:36:31.286Z,23.27
2019-04-16T06:39:17.379Z,27.25
2019-04-16T06:41:48.592Z,30.35
2019-04-16T06:44:22.339Z,29.48
2019-04-16T06:49:34.521Z,22.40
2019-04-16T06:52:23.080Z,21.77
2019-04-16T06:54:56.913Z,26.62
2019-04-16T06:57:27.886Z,24.05
2019-04-16T06:59:59.462Z,29.95
2019-04-16T07:03:01.382Z,28.98
2019-04-16T07:05:33.221Z,27.30
2019-04-16T07:08:10.000Z,25.88
2019-04-16T07:10:49.953Z,32.05
2019-04-16T07:13:19.574Z,23.83
2019-04-16T07:15:49.142Z,22.17
2019-04-16T07:18:20.714Z,25.32
2019-04-16T07:20:49.755Z,21.65
2019-04-16T07:23:24.297Z,23.67
2019-04-16T07:25:50.287Z,23.90
2019-04-16T07:28:33.404Z,23.98
2019-04-16T07:31:13.192Z,25.00
2019-04-16T07:34:00.512Z,23.45
2019-04-16T07:36:43.513Z,23.35
2019-04-16T07:39:37.273Z,25.40
2019-04-16T07:42:10.747Z,29.45
2019-04-16T07:44:39.228Z,22.95
2019-04-16T07:47:10.559Z,21.62
2019-04-16T07:49:50.637Z,21.95
2019-04-16T07:52:27.323Z,27.85
2019-04-16T07:55:14.758Z,25.48
2019-04-16T07:57:44.384Z,23.32
2019-04-16T08:00:14.664Z,19.35
2019-04-16T08:02:44.005Z,23.87
2019-04-16T08:05:13.435Z,19.15
2019-04-16T08:07:42.785Z,24.92
2019-04-16T08:10:13.062Z,25.23
2019-04-16T08:12:44.067Z,21.75
2019-04-16T08:15:15.352Z,25.37
2019-04-16T08:17:44.809Z,20.92
2019-04-16T08:20:14.316Z,23.50
2019-04-16T08:22:47.562Z,23.45
2019-04-16T08:25:17.967Z,25.72
2019-04-16T08:27:50.592Z,20.35
2019-04-16T08:30:18.744Z,25.55
2019-04-16T08:32:48.981Z,22.05
2019-04-16T08:35:19.027Z,22.20
2019-04-16T08:37:49.551Z,25.25
2019-04-16T08:40:19.049Z,20.70
2019-04-16T08:42:48.731Z,25.37
2019-04-16T08:45:20.622Z,22.70
2019-04-16T08:47:49.105Z,27.90
2019-04-16T08:50:18.744Z,21.97
2019-04-16T08:52:48.103Z,19.73
2019-04-16T08:55:20.502Z,24.50
2019-04-16T08:57:48.712Z,23.52
2019-04-16T09:00:18.130Z,22.35
2019-04-16T09:02:47.807Z,21.95
2019-04-16T09:05:17.175Z,26.93
2019-04-16T09:07:50.654Z,23.62
2019-04-16T09:10:23.562Z,21.33
2019-04-16T09:13:02.350Z,25.53
2019-04-16T09:15:29.074Z,19.67
2019-04-16T09:18:14.997Z,23.87
2019-04-16T09:20:46.411Z,26.65
2019-04-16T09:23:15.774Z,23.15
2019-04-16T09:26:13.048Z,20.72
2019-04-16T09:28:48.000Z,20.92
2019-04-16T09:31:34.349Z,25.32
2019-04-16T09:34:11.651Z,24.30
2019-04-16T09:36:58.974Z,25.30
2019-04-16T09:39:32.643Z,23.62
2019-04-16T09:44:33.731Z,22.45
2019-04-16T09:47:04.921Z,23.20
2019-04-16T09:49:34.414Z,14.60
2019-04-16T09:52:05.269Z,22.95
2019-04-16T09:54:34.635Z,23.80
2019-04-16T09:57:04.023Z,22.93
2019-04-16T09:59:44.778Z,25.02
2019-04-16T10:02:19.239Z,24.87
2019-04-16T10:07:17.293Z,11.93
2019-04-16T10:09:46.670Z,26.15
2019-04-16T10:12:16.039Z,21.77
2019-04-16T10:14:45.491Z,22.07
2019-04-16T10:17:14.847Z,24.05
2019-04-16T10:19:44.212Z,24.77
2019-04-16T10:22:13.803Z,22.10
2019-04-16T10:25:02.874Z,22.30
2019-04-16T10:27:34.201Z,23.65
2019-04-16T10:30:06.421Z,26.60
2019-04-16T10:32:36.060Z,23.35
2019-04-16T10:35:05.837Z,24.12
2019-04-16T10:37:35.188Z,23.50
2019-04-16T10:40:23.076Z,22.55
2019-04-16T10:43:09.272Z,24.40
2019-04-16T10:45:55.402Z,22.45
2019-04-16T10:48:28.747Z,20.92
2019-04-16T10:51:08.651Z,24.65
2019-04-16T10:53:45.649Z,27.27
2019-04-16T10:56:22.524Z,19.37
2019-04-16T10:58:56.183Z,9.23
2019-04-16T11:04:08.656Z,21.90
2019-04-16T11:06:42.401Z,25.32
2019-04-16T11:09:12.016Z,22.75
2019-04-16T11:11:41.459Z,27.62
2019-04-16T11:14:10.806Z,25.43
2019-04-16T11:16:41.864Z,21.65
2019-04-16T11:19:11.467Z,25.48
2019-04-16T11:21:41.090Z,25.02
2019-04-16T11:24:10.433Z,23.83
2019-04-16T11:26:39.731Z,28.27
2019-04-16T11:29:09.205Z,22.05
2019-04-16T11:31:39.773Z,24.55
2019-04-16T11:34:10.212Z,23.55
2019-04-16T11:36:39.685Z,26.50
2019-04-16T11:39:10.379Z,18.85
2019-04-16T11:41:40.063Z,16.32
2019-04-16T11:44:16.180Z,20.62
2019-04-16T11:46:40.480Z,22.37
2019-04-16T11:49:09.932Z,19.35
2019-04-16T11:51:39.273Z,28.50
2019-04-16T11:54:11.808Z,19.42
2019-04-16T11:56:43.241Z,17.92
2019-04-16T11:59:13.061Z,18.65
2019-04-16T12:01:44.057Z,15.75
2019-04-16T12:04:21.006Z,12.30
2019-04-16T12:07:10.132Z,12.58
2019-04-16T12:09:42.087Z,11.15
2019-04-16T12:12:13.073Z,12.10
2019-04-16T12:14:44.062Z,16.32
2019-04-16T12:17:30.137Z,14.07
2019-04-16T12:20:17.655Z,13.38
2019-04-16T12:22:57.895Z,13.08
2019-04-16T12:25:44.002Z,12.28
2019-04-16T12:28:31.107Z,11.05
2019-04-16T12:31:19.991Z,12.07
2019-04-16T12:33:51.210Z,9.08
2019-04-16T12:36:33.899Z,13.15
2019-04-16T12:39:18.799Z,13.65
2019-04-16T12:41:54.466Z,17.57
2019-04-16T12:44:45.200Z,13.48
2019-04-16T12:47:06.919Z,11.10
2019-04-16T12:49:43.916Z,10.00
2019-04-16T12:52:31.119Z,9.88
2019-04-16T12:55:11.159Z,10.72
2019-04-16T12:57:47.324Z,12.43
2019-04-16T13:00:33.054Z,11.85
2019-04-16T13:03:18.502Z,12.45
2019-04-16T13:06:07.400Z,8.03
2019-04-16T13:08:47.946Z,12.37
2019-04-16T13:11:27.805Z,5.47
2019-04-16T13:14:07.476Z,10.23
2019-04-16T13:16:47.417Z,9.60
2019-04-16T13:19:34.587Z,11.63
2019-04-16T13:22:05.683Z,10.63
2019-04-16T13:24:36.839Z,8.28
2019-04-16T13:27:10.534Z,6.28
2019-04-16T13:29:39.897Z,7.95
2019-04-16T13:32:09.436Z,8.45
2019-04-16T13:34:38.743Z,7.42
2019-04-16T13:37:08.114Z,9.15
2019-04-16T13:39:42.033Z,8.80
2019-04-16T13:42:11.664Z,9.28
2019-04-16T13:44:42.650Z,6.75
2019-04-16T13:47:12.025Z,8.53
2019-04-16T13:50:03.293Z,5.75
2019-04-16T13:52:32.630Z,3.70
2019-04-16T13:55:12.609Z,4.42
2019-04-16T13:57:43.655Z,8.28
2019-04-16T14:00:15.370Z,9.48
2019-04-16T14:02:47.846Z,8.33
2019-04-16T14:05:17.855Z,15.88
2019-04-16T14:07:47.235Z,16.25
2019-04-16T14:10:16.597Z,15.48
2019-04-16T14:12:45.933Z,13.30
2019-04-16T14:15:30.829Z,12.95
2019-04-16T14:17:52.867Z,11.60
2019-04-16T14:20:18.412Z,12.30
2019-04-16T14:22:47.835Z,15.03
2019-04-16T14:25:17.556Z,16.62
2019-04-16T14:27:46.911Z,11.33
2019-04-16T14:30:20.891Z,10.20
2019-04-16T14:32:50.458Z,12.53
2019-04-16T14:35:32.909Z,12.25
2019-04-16T14:37:53.465Z,14.07
2019-04-16T14:40:24.703Z,13.78
2019-04-16T14:42:57.563Z,13.38
2019-04-16T14:45:27.782Z,12.67
2019-04-16T14:47:57.749Z,12.65
2019-04-16T14:50:27.067Z,13.13
2019-04-16T14:52:56.403Z,11.43
2019-04-16T14:55:33.207Z,14.95
2019-04-16T14:58:09.810Z,15.48
2019-04-16T15:00:52.972Z,11.10
2019-04-16T15:03:26.860Z,12.25
2019-04-16T15:05:57.836Z,12.40
2019-04-16T15:08:37.866Z,13.35
2019-04-16T15:11:24.530Z,11.85
2019-04-16T15:14:11.487Z,11.28
2019-04-16T15:16:50.789Z,9.55
2019-04-16T15:19:29.614Z,12.25
2019-04-16T15:22:18.525Z,10.90
2019-04-16T15:24:49.485Z,12.10
2019-04-16T15:27:20.486Z,12.95
2019-04-16T15:29:52.526Z,12.05
2019-04-16T15:32:36.310Z,10.63
2019-04-16T15:35:07.273Z,8.23
2019-04-16T15:37:38.261Z,8.50
2019-04-16T15:40:09.598Z,13.53
2019-04-16T15:42:56.651Z,10.90
2019-04-16T15:45:37.136Z,15.63
2019-04-16T15:48:22.878Z,11.45
2019-04-16T15:50:53.899Z,8.30
2019-04-16T15:53:30.869Z,8.30
2019-04-16T15:56:07.286Z,13.25
2019-04-16T15:58:44.194Z,10.78
2019-04-16T16:01:15.207Z,14.55
2019-04-16T16:04:02.221Z,13.00
2019-04-16T16:06:33.416Z,5.95
2019-04-16T16:09:20.279Z,5.60
2019-04-16T16:11:51.895Z,11.45
2019-04-16T16:14:21.195Z,11.93
2019-04-16T16:16:51.589Z,11.10
2019-04-16T16:19:20.894Z,11.90
2019-04-16T16:21:50.259Z,13.43
2019-04-16T16:24:19.563Z,12.90
2019-04-16T16:26:48.957Z,11.03
2019-04-16T16:29:18.254Z,11.60
2019-04-16T16:31:47.631Z,12.05
2019-04-16T16:34:16.985Z,15.13
2019-04-16T16:36:46.578Z,13.93
2019-04-16T16:39:15.907Z,11.70
2019-04-16T16:41:46.696Z,12.00
2019-04-16T16:44:16.162Z,11.28
2019-04-16T16:46:56.643Z,12.18
2019-04-16T16:49:18.166Z,12.45
2019-04-16T16:51:52.058Z,11.25
2019-04-16T16:54:25.460Z,12.60
2019-04-16T16:59:44.500Z,10.90
2019-04-16T17:02:27.572Z,12.85
2019-04-16T17:04:58.589Z,14.98
2019-04-16T17:07:27.952Z,10.98
2019-04-16T17:09:57.327Z,13.00
2019-04-16T17:12:26.686Z,11.55
2019-04-16T17:14:56.045Z,11.40
2019-04-16T17:17:25.618Z,9.70
2019-04-16T17:19:55.224Z,9.53
2019-04-16T17:22:24.829Z,7.28
2019-04-16T17:24:54.539Z,11.45
2019-04-16T17:27:24.145Z,12.30
2019-04-16T17:29:53.591Z,11.08
2019-04-16T17:32:23.618Z,10.50
2019-04-16T17:34:53.640Z,10.75
2019-04-16T17:37:27.839Z,9.78
2019-04-16T17:39:54.864Z,11.70
2019-04-16T17:42:28.494Z,12.10
2019-04-16T17:44:59.473Z,7.42
2019-04-16T17:47:33.493Z,6.60
2019-04-16T17:50:04.978Z,5.35
2019-04-16T17:52:35.964Z,7.40
2019-04-16T17:55:07.630Z,6.85
2019-04-16T17:57:50.452Z,5.80
2019-04-16T18:00:34.617Z,7.15
2019-04-16T18:03:17.722Z,5.70
2019-04-16T18:05:54.519Z,3.92
2019-04-16T18:08:34.817Z,6.10
2019-04-16T18:11:09.740Z,5.53
2019-04-16T18:13:44.790Z,6.62
2019-04-16T18:16:19.809Z,8.88
2019-04-16T18:18:50.935Z,8.28
2019-04-16T18:21:21.908Z,7.37
2019-04-16T18:24:01.310Z,6.72
2019-04-16T18:26:33.273Z,5.58
2019-04-16T18:29:06.652Z,6.17
2019-04-16T18:31:40.557Z,7.30
2019-04-16T18:34:11.541Z,11.68
2019-04-16T18:36:42.779Z,6.80
2019-04-16T18:39:19.507Z,6.30
2019-04-16T18:41:50.471Z,4.28
2019-04-16T18:44:36.055Z,3.65
2019-04-16T18:47:22.980Z,3.15
2019-04-16T18:49:54.543Z,7.08
2019-04-16T18:52:23.916Z,5.62
2019-04-16T18:54:53.517Z,3.22
2019-04-16T18:57:22.850Z,4.60
2019-04-16T18:59:52.544Z,8.73
2019-04-16T19:02:23.371Z,4.72
2019-04-16T19:04:52.738Z,5.37
2019-04-16T19:07:22.093Z,6.75
2019-04-16T19:09:51.428Z,9.65
2019-04-16T19:12:21.028Z,3.37
2019-04-16T19:14:50.458Z,4.65
2019-04-16T19:17:19.801Z,3.92
2019-04-16T19:19:49.150Z,4.42
2019-04-16T19:22:18.565Z,3.27
2019-04-16T19:24:47.910Z,3.67
2019-04-16T19:27:17.269Z,8.50
2019-04-16T19:29:46.829Z,5.45
2019-04-16T19:32:16.168Z,5.20
2019-04-16T19:34:45.592Z,3.05
2019-04-16T19:37:15.184Z,3.33
2019-04-16T19:39:46.651Z,5.60
2019-04-16T19:42:15.835Z,6.37
2019-04-16T19:44:45.528Z,4.72
2019-04-16T19:47:15.119Z,3.37
2019-04-16T19:49:44.452Z,4.70
2019-04-16T19:52:14.341Z,5.35
2019-04-16T19:54:44.903Z,5.78
2019-04-16T19:57:14.502Z,6.55
2019-04-16T19:59:46.397Z,5.62
2019-04-16T20:02:14.880Z,5.92
2019-04-16T20:04:45.030Z,6.05
2019-04-16T20:07:14.416Z,3.02
2019-04-16T20:09:43.766Z,4.72
2019-04-16T20:12:14.095Z,4.92
2019-04-16T20:14:43.416Z,3.27
2019-04-16T20:17:12.785Z,5.53
2019-04-16T20:20:00.712Z,5.90
2019-04-16T20:22:31.275Z,3.15
2019-04-16T20:25:00.607Z,5.20
2019-04-16T20:27:29.963Z,4.33
2019-04-16T20:29:59.555Z,5.78
2019-04-16T20:32:30.995Z,4.75
2019-04-16T20:35:00.750Z,9.95
2019-04-16T20:37:30.322Z,2.52
2019-04-16T20:39:59.678Z,3.27
2019-04-16T20:42:29.033Z,4.70
2019-04-16T20:44:59.019Z,4.03
2019-04-16T20:47:28.381Z,2.90
2019-04-16T20:49:57.731Z,5.42
2019-04-16T20:52:27.066Z,2.80
2019-04-16T20:54:56.414Z,4.58
2019-04-16T20:57:26.492Z,3.22
2019-04-16T20:59:57.258Z,6.25
2019-04-16T21:02:28.251Z,3.30
2019-04-16T21:05:01.686Z,3.55
2019-04-16T21:07:28.873Z,6.12
2019-04-16T21:09:59.871Z,5.28
2019-04-16T21:12:29.313Z,5.62
2019-04-16T21:14:58.648Z,5.47
2019-04-16T21:17:28.304Z,2.83
2019-04-16T21:19:58.152Z,4.53
2019-04-16T21:22:28.789Z,3.85
2019-04-16T21:24:58.637Z,4.53
2019-04-16T21:27:27.964Z,3.27
2019-04-16T21:29:57.398Z,4.70
2019-04-16T21:32:45.606Z,3.80
2019-04-16T21:35:17.749Z,3.47
2019-04-16T21:37:48.740Z,6.25
2019-04-16T21:40:23.124Z,3.10
2019-04-16T21:42:49.148Z,4.22
2019-04-16T21:45:18.497Z,3.67
2019-04-16T21:47:47.824Z,5.35
2019-04-16T21:50:17.174Z,8.05
2019-04-16T21:52:46.524Z,7.83
2019-04-16T21:55:15.859Z,5.70
2019-04-16T21:57:46.043Z,4.35
2019-04-16T22:00:34.618Z,4.10
2019-04-16T22:03:10.118Z,5.20
2019-04-16T22:05:38.460Z,6.15
2019-04-16T22:08:07.805Z,6.33
2019-04-16T22:10:37.161Z,7.40
2019-04-16T22:13:06.663Z,6.30
2019-04-16T22:15:35.992Z,6.42
2019-04-16T22:18:08.786Z,7.00
2019-04-16T22:20:36.654Z,5.62
2019-04-16T22:23:06.049Z,4.05
2019-04-16T22:25:35.387Z,5.53
2019-04-16T22:28:04.883Z,6.20
2019-04-16T22:30:34.543Z,5.92
2019-04-16T22:33:06.465Z,5.05
2019-04-16T22:35:35.714Z,5.08
2019-04-16T22:38:05.041Z,5.72
2019-04-16T22:40:47.938Z,5.65
2019-04-16T22:43:35.122Z,5.65
2019-04-16T22:46:06.397Z,6.12
2019-04-16T22:48:35.884Z,7.33
2019-04-16T22:51:09.686Z,4.53
2019-04-16T22:53:36.260Z,5.08
2019-04-16T22:56:05.618Z,5.97
2019-04-16T22:58:47.833Z,6.70
2019-04-16T23:01:18.936Z,5.08
2019-04-16T23:03:49.741Z,5.50
2019-04-16T23:06:20.280Z,4.97
2019-04-16T23:08:49.633Z,4.25
2019-04-16T23:11:23.309Z,4.90
2019-04-16T23:13:51.089Z,6.60
2019-04-16T23:16:20.521Z,4.20
2019-04-16T23:18:50.112Z,7.03
2019-04-16T23:21:19.514Z,5.20
2019-04-16T23:23:51.421Z,4.50
2019-04-16T23:26:19.917Z,9.03
2019-04-16T23:28:49.277Z,5.45
2019-04-16T23:31:19.624Z,4.50
2019-04-16T23:33:49.033Z,4.20
2019-04-16T23:36:19.198Z,5.45
2019-04-16T23:38:48.858Z,8.68
2019-04-16T23:41:18.205Z,5.53
2019-04-16T23:43:50.597Z,8.45
2019-04-16T23:46:28.310Z,5.55
2019-04-16T23:49:16.466Z,5.62
2019-04-16T23:52:01.758Z,5.22
2019-04-16T23:54:30.977Z,5.40
2019-04-16T23:57:01.976Z,8.03
2019-04-16T23:59:35.736Z,5.10
